createdAt,value
2023-05-25T00:01:24.459Z,68.30
2023-05-25T00:04:17.636Z,69.20
2023-05-25T00:07:05.787Z,68.30
2023-05-25T00:09:53.393Z,68.70
2023-05-25T00:12:41.057Z,68.40
2023-05-25T00:15:29.537Z,68.40
2023-05-25T00:18:19.030Z,68.70
2023-05-25T00:21:07.212Z,69.10
2023-05-25T00:23:55.421Z,68.60
2023-05-25T00:26:42.596Z,69.50
2023-05-25T00:29:31.453Z,69.40
2023-05-25T00:32:20.420Z,70.00
2023-05-25T00:35:09.375Z,70.20
2023-05-25T00:37:56.585Z,70.40
2023-05-25T00:40:45.726Z,70.30
2023-05-25T00:43:33.483Z,70.40
2023-05-25T00:46:21.217Z,70.60
2023-05-25T00:49:11.390Z,70.90
2023-05-25T00:51:58.574Z,70.70
2023-05-25T00:54:52.068Z,70.90
2023-05-25T00:57:41.991Z,71.20
2023-05-25T01:00:32.517Z,71.50
2023-05-25T01:03:22.800Z,71.20
2023-05-25T01:06:16.445Z,71.70
2023-05-25T01:09:05.539Z,71.80
2023-05-25T01:11:53.905Z,72.00
2023-05-25T01:14:42.738Z,71.70
2023-05-25T01:17:29.981Z,72.10
2023-05-25T01:20:18.215Z,72.60
2023-05-25T01:23:13.739Z,73.10
2023-05-25T01:26:08.326Z,73.50
2023-05-25T01:28:57.650Z,73.80
2023-05-25T01:31:47.745Z,74.10
2023-05-25T01:34:36.011Z,74.20
2023-05-25T01:37:25.159Z,74.90
2023-05-25T01:40:14.994Z,75.30
2023-05-25T01:43:02.675Z,75.00
2023-05-25T01:45:51.994Z,75.10
2023-05-25T01:48:49.071Z,75.10
2023-05-25T01:51:40.098Z,75.20
2023-05-25T01:54:35.622Z,75.60
2023-05-25T01:57:26.860Z,76.20
2023-05-25T02:00:15.991Z,76.50
2023-05-25T02:03:05.047Z,77.00
2023-05-25T02:05:52.936Z,77.20
2023-05-25T02:08:40.176Z,77.80
2023-05-25T02:11:28.442Z,78.20
2023-05-25T02:14:17.346Z,78.70
2023-05-25T02:17:05.905Z,79.40
2023-05-25T02:19:54.534Z,79.80
2023-05-25T02:22:42.766Z,80.10
2023-05-25T02:25:30.612Z,81.50
2023-05-25T02:28:19.289Z,82.50
2023-05-25T02:31:07.904Z,83.10
2023-05-25T02:33:56.689Z,83.60
2023-05-25T02:36:46.862Z,84.20
2023-05-25T02:39:34.014Z,84.70
2023-05-25T02:42:22.112Z,84.90
2023-05-25T02:45:10.851Z,85.20
2023-05-25T02:48:01.254Z,85.90
2023-05-25T02:50:48.921Z,86.50
2023-05-25T02:53:37.148Z,87.20
2023-05-25T02:56:24.564Z,87.70
2023-05-25T02:59:12.898Z,87.90
2023-05-25T03:02:00.887Z,88.60
2023-05-25T03:04:53.747Z,88.60
2023-05-25T03:07:43.561Z,88.70
2023-05-25T03:10:31.508Z,88.90
2023-05-25T03:13:19.331Z,89.10
2023-05-25T03:16:07.748Z,89.60
2023-05-25T03:18:55.868Z,90.20
2023-05-25T03:21:45.344Z,90.20
2023-05-25T03:24:33.038Z,90.30
2023-05-25T03:27:23.164Z,90.70
2023-05-25T03:30:12.654Z,90.80
2023-05-25T03:32:59.918Z,90.90
2023-05-25T03:35:53.504Z,90.90
2023-05-25T03:38:44.044Z,90.70
2023-05-25T03:41:31.486Z,90.70
2023-05-25T03:44:19.991Z,90.50
2023-05-25T03:47:08.030Z,90.60
2023-05-25T03:49:55.893Z,90.20
2023-05-25T03:52:43.175Z,90.30
2023-05-25T03:55:32.436Z,90.40
2023-05-25T03:58:20.621Z,90.30
2023-05-25T04:01:10.168Z,90.50
2023-05-25T04:03:58.024Z,90.10
2023-05-25T04:06:49.478Z,90.30
2023-05-25T04:09:37.244Z,89.90
2023-05-25T04:12:26.039Z,90.00
2023-05-25T04:15:14.881Z,89.90
2023-05-25T04:18:13.425Z,89.70
2023-05-25T04:21:02.330Z,90.00
2023-05-25T04:23:50.087Z,89.60
2023-05-25T04:26:39.429Z,89.10
2023-05-25T04:29:29.478Z,88.90
2023-05-25T04:32:22.295Z,89.70
2023-05-25T04:35:15.880Z,89.50
2023-05-25T04:38:07.713Z,89.20
2023-05-25T04:40:56.225Z,88.60
2023-05-25T04:44:04.665Z,88.70
2023-05-25T04:47:00.016Z,88.60
2023-05-25T04:49:52.336Z,88.70
2023-05-25T04:52:39.658Z,88.60
2023-05-25T04:55:30.071Z,88.50
2023-05-25T04:58:17.244Z,87.80
2023-05-25T05:01:05.252Z,88.10
2023-05-25T05:03:54.076Z,88.40
2023-05-25T05:06:42.572Z,88.00
2023-05-25T05:09:34.587Z,87.80
2023-05-25T05:12:23.797Z,87.80
2023-05-25T05:15:12.737Z,89.40
2023-05-25T05:18:05.009Z,89.10
2023-05-25T05:20:54.493Z,89.50
2023-05-25T05:23:43.407Z,88.80
2023-05-25T05:26:34.262Z,89.10
2023-05-25T05:29:34.265Z,89.40
2023-05-25T05:32:22.233Z,89.60
2023-05-25T05:35:10.842Z,89.90
2023-05-25T05:38:03.491Z,89.90
2023-05-25T05:40:50.939Z,89.40
2023-05-25T05:43:44.917Z,89.50
2023-05-25T05:46:32.625Z,89.70
2023-05-25T05:49:21.079Z,89.60
2023-05-25T05:52:09.686Z,89.60
2023-05-25T05:54:58.208Z,89.90
2023-05-25T05:57:46.428Z,90.20
2023-05-25T06:00:33.995Z,90.30
2023-05-25T06:03:21.733Z,90.00
2023-05-25T06:06:09.721Z,89.90
2023-05-25T06:08:58.656Z,88.80
2023-05-25T06:11:47.609Z,88.70
2023-05-25T06:14:35.958Z,88.80
2023-05-25T06:17:24.895Z,89.10
2023-05-25T06:20:15.115Z,89.50
2023-05-25T06:23:02.839Z,89.00
2023-05-25T06:25:54.507Z,88.90
2023-05-25T06:28:44.057Z,89.00
2023-05-25T06:31:31.380Z,88.90
2023-05-25T06:34:19.016Z,88.40
2023-05-25T06:37:07.054Z,88.50
2023-05-25T06:39:57.676Z,88.30
2023-05-25T06:42:44.946Z,88.10
2023-05-25T06:45:53.094Z,88.10
2023-05-25T06:48:40.775Z,88.30
2023-05-25T06:51:29.217Z,88.70
2023-05-25T06:54:17.573Z,88.70
2023-05-25T06:57:05.523Z,88.10
2023-05-25T06:59:52.721Z,87.30
2023-05-25T07:02:41.705Z,87.60
2023-05-25T07:05:29.187Z,87.90
2023-05-25T07:08:17.382Z,87.70
2023-05-25T07:11:04.741Z,87.60
2023-05-25T07:13:52.818Z,87.40
2023-05-25T07:16:40.034Z,87.00
2023-05-25T07:19:29.505Z,87.30
2023-05-25T07:22:19.422Z,87.10
2023-05-25T07:25:07.831Z,86.00
2023-05-25T07:27:55.745Z,86.80
2023-05-25T07:30:43.396Z,87.10
2023-05-25T07:33:31.379Z,86.50
2023-05-25T07:36:20.076Z,86.70
2023-05-25T07:39:09.489Z,86.30
2023-05-25T07:41:56.665Z,85.90
2023-05-25T07:44:44.725Z,86.10
2023-05-25T07:47:32.733Z,85.70
2023-05-25T07:50:20.237Z,85.40
2023-05-25T07:53:09.752Z,85.30
2023-05-25T07:55:56.880Z,84.50
2023-05-25T07:58:45.034Z,84.10
2023-05-25T08:01:32.675Z,84.30
2023-05-25T08:04:20.521Z,84.20
2023-05-25T08:07:07.819Z,84.00
2023-05-25T08:09:57.346Z,83.90
2023-05-25T08:12:49.636Z,83.80
2023-05-25T08:15:38.869Z,83.30
2023-05-25T08:18:26.112Z,82.60
2023-05-25T08:21:14.332Z,83.00
2023-05-25T08:24:04.530Z,82.70
2023-05-25T08:26:55.098Z,82.00
2023-05-25T08:29:42.614Z,82.50
2023-05-25T08:32:31.278Z,80.90
2023-05-25T08:35:19.163Z,80.70
2023-05-25T08:38:06.314Z,80.60
2023-05-25T08:41:03.721Z,80.50
2023-05-25T08:43:52.560Z,80.40
2023-05-25T08:46:41.101Z,81.30
2023-05-25T08:49:30.107Z,81.20
2023-05-25T08:52:22.288Z,81.10
2023-05-25T08:55:10.518Z,80.70
2023-05-25T08:58:07.536Z,80.80
2023-05-25T09:00:59.469Z,80.80
2023-05-25T09:03:48.154Z,81.40
2023-05-25T09:06:37.185Z,81.20
2023-05-25T09:09:24.488Z,80.80
2023-05-25T09:12:13.068Z,80.70
2023-05-25T09:15:00.846Z,81.10
2023-05-25T09:17:51.364Z,81.00
2023-05-25T09:20:38.572Z,81.00
2023-05-25T09:23:26.844Z,81.10
2023-05-25T09:26:14.632Z,80.60
2023-05-25T09:29:02.744Z,79.80
2023-05-25T09:31:50.777Z,79.90
2023-05-25T09:34:40.278Z,80.80
2023-05-25T09:37:28.045Z,80.00
2023-05-25T09:40:17.476Z,80.20
2023-05-25T09:43:05.828Z,79.80
2023-05-25T09:45:53.882Z,79.20
2023-05-25T09:48:41.966Z,78.50
2023-05-25T09:51:33.754Z,78.50
2023-05-25T09:54:26.249Z,79.20
2023-05-25T09:57:13.901Z,79.70
2023-05-25T10:00:01.565Z,80.00
2023-05-25T10:03:01.384Z,79.60
2023-05-25T10:05:48.965Z,78.40
2023-05-25T10:08:38.668Z,78.90
2023-05-25T10:11:27.983Z,78.50
2023-05-25T10:14:20.052Z,78.20
2023-05-25T10:17:09.138Z,77.00
2023-05-25T10:20:00.626Z,77.70
2023-05-25T10:22:54.266Z,78.00
2023-05-25T10:25:45.922Z,76.30
2023-05-25T10:28:37.336Z,76.60
2023-05-25T10:31:28.779Z,77.40
2023-05-25T10:34:17.605Z,77.70
2023-05-25T10:37:06.460Z,78.30
2023-05-25T10:39:55.789Z,76.00
2023-05-25T10:42:46.115Z,75.50
2023-05-25T10:45:34.610Z,74.30
2023-05-25T10:48:22.966Z,74.70
2023-05-25T10:51:12.058Z,75.10
2023-05-25T10:54:02.368Z,74.90
2023-05-25T10:57:08.742Z,74.60
2023-05-25T11:00:07.131Z,75.00
2023-05-25T11:02:55.677Z,75.10
2023-05-25T11:05:51.625Z,74.60
2023-05-25T11:08:54.187Z,74.00
2023-05-25T11:12:02.789Z,73.80
2023-05-25T11:15:16.005Z,73.50
2023-05-25T11:18:03.304Z,73.10
2023-05-25T11:21:11.970Z,73.10
2023-05-25T11:24:03.408Z,73.70
2023-05-25T11:26:56.426Z,73.40
2023-05-25T11:29:43.801Z,72.90
2023-05-25T11:32:33.333Z,72.80
2023-05-25T11:35:21.894Z,74.00
2023-05-25T11:38:10.225Z,73.60
2023-05-25T11:40:57.443Z,73.70
2023-05-25T11:43:46.857Z,73.70
2023-05-25T11:46:35.508Z,72.60
2023-05-25T11:49:26.246Z,71.60
2023-05-25T11:52:14.494Z,69.80
2023-05-25T11:55:02.689Z,70.00
2023-05-25T11:57:56.750Z,69.50
2023-05-25T12:00:45.112Z,70.30
2023-05-25T12:03:32.709Z,70.00
2023-05-25T12:06:27.048Z,70.70
2023-05-25T12:09:18.760Z,69.90
2023-05-25T12:12:07.732Z,67.90
2023-05-25T12:14:56.052Z,66.70
2023-05-25T12:17:46.072Z,66.10
2023-05-25T12:20:33.881Z,66.90
2023-05-25T12:23:23.056Z,67.20
2023-05-25T12:26:11.957Z,65.80
2023-05-25T12:29:01.668Z,65.00
2023-05-25T12:31:49.203Z,65.00
2023-05-25T12:34:37.302Z,64.60
2023-05-25T12:37:24.781Z,64.20
2023-05-25T12:40:21.535Z,65.70
2023-05-25T12:43:08.803Z,65.10
2023-05-25T12:45:56.956Z,64.30
2023-05-25T12:48:44.256Z,64.20
2023-05-25T12:51:39.146Z,64.10
2023-05-25T12:54:38.166Z,63.60
2023-05-25T12:57:37.933Z,63.10
2023-05-25T13:00:27.601Z,63.30
2023-05-25T13:03:17.895Z,62.30
2023-05-25T13:06:06.644Z,63.20
2023-05-25T13:08:54.302Z,64.20
2023-05-25T13:11:41.480Z,62.00
2023-05-25T13:14:31.185Z,62.30
2023-05-25T13:17:18.848Z,63.70
2023-05-25T13:20:06.832Z,62.80
2023-05-25T13:22:58.542Z,62.50
2023-05-25T13:25:46.998Z,62.20
2023-05-25T13:28:35.113Z,60.50
2023-05-25T13:31:25.101Z,59.00
2023-05-25T13:34:13.354Z,60.00
2023-05-25T13:37:00.983Z,60.80
2023-05-25T13:39:48.595Z,60.60
2023-05-25T13:42:36.218Z,60.30
2023-05-25T13:45:23.820Z,60.50
2023-05-25T13:48:12.352Z,59.90
2023-05-25T13:51:00.714Z,59.00
2023-05-25T13:53:48.956Z,59.10
2023-05-25T13:56:37.164Z,58.80
2023-05-25T13:59:24.249Z,58.80
2023-05-25T14:02:12.406Z,59.80
2023-05-25T14:05:01.040Z,60.40
2023-05-25T14:07:49.226Z,60.90
2023-05-25T14:10:36.738Z,60.70
2023-05-25T14:13:24.888Z,60.50
2023-05-25T14:16:12.148Z,61.90
2023-05-25T14:19:00.255Z,60.80
2023-05-25T14:21:59.707Z,60.70
2023-05-25T14:24:56.878Z,60.90
2023-05-25T14:27:44.178Z,60.00
2023-05-25T14:30:32.332Z,61.80
2023-05-25T14:33:19.541Z,61.10
2023-05-25T14:36:08.243Z,61.20
2023-05-25T14:38:56.733Z,61.20
2023-05-25T14:41:44.534Z,61.50
2023-05-25T14:44:31.778Z,60.40
2023-05-25T14:47:19.396Z,60.80
2023-05-25T14:50:07.739Z,61.10
2023-05-25T14:52:55.960Z,61.20
2023-05-25T14:55:44.870Z,60.40
2023-05-25T14:58:32.857Z,60.30
2023-05-25T15:01:21.521Z,61.10
2023-05-25T15:04:10.298Z,61.30
2023-05-25T15:06:57.899Z,61.30
2023-05-25T15:09:45.897Z,61.10
2023-05-25T15:12:34.901Z,61.10
2023-05-25T15:15:22.552Z,61.80
2023-05-25T15:18:09.869Z,61.40
2023-05-25T15:20:58.097Z,61.80
2023-05-25T15:23:46.038Z,61.00
2023-05-25T15:26:33.277Z,62.70
2023-05-25T15:29:22.345Z,64.30
2023-05-25T15:32:13.196Z,63.20
2023-05-25T15:35:01.057Z,62.70
2023-05-25T15:37:48.735Z,63.20
2023-05-25T15:40:37.620Z,64.40
2023-05-25T15:43:24.854Z,65.00
2023-05-25T15:46:14.385Z,64.80
2023-05-25T15:49:02.033Z,62.30
2023-05-25T15:51:49.770Z,63.60
2023-05-25T15:54:36.956Z,63.10
2023-05-25T15:57:25.139Z,64.30
2023-05-25T16:00:13.692Z,64.20
2023-05-25T16:03:03.373Z,64.10
2023-05-25T16:05:50.520Z,62.40
2023-05-25T16:08:38.884Z,61.90
2023-05-25T16:11:27.985Z,61.30
2023-05-25T16:14:16.216Z,60.60
2023-05-25T16:17:03.536Z,59.90
2023-05-25T16:19:53.100Z,61.00
2023-05-25T16:22:40.719Z,61.10
2023-05-25T16:25:28.434Z,61.10
2023-05-25T16:28:15.777Z,60.30
2023-05-25T16:31:03.553Z,60.70
2023-05-25T16:33:51.255Z,60.90
2023-05-25T16:36:39.838Z,61.60
2023-05-25T16:39:27.465Z,60.90
2023-05-25T16:42:14.756Z,60.80
2023-05-25T16:45:01.893Z,62.20
2023-05-25T16:47:50.233Z,62.30
2023-05-25T16:50:37.416Z,62.10
2023-05-25T16:53:26.081Z,62.90
2023-05-25T16:56:13.275Z,62.10
2023-05-25T16:59:00.498Z,61.80
2023-05-25T17:01:48.398Z,61.20
2023-05-25T17:04:35.814Z,60.10
2023-05-25T17:07:23.499Z,60.60
2023-05-25T17:10:12.732Z,60.20
2023-05-25T17:13:01.002Z,60.70
2023-05-25T17:15:48.951Z,60.50
2023-05-25T17:18:36.326Z,61.40
2023-05-25T17:21:24.016Z,62.10
2023-05-25T17:24:11.711Z,62.10
2023-05-25T17:27:01.220Z,61.90
2023-05-25T17:29:48.450Z,62.30
2023-05-25T17:32:35.908Z,62.80
2023-05-25T17:35:24.148Z,63.10
2023-05-25T17:38:11.539Z,63.80
2023-05-25T17:40:59.202Z,63.30
2023-05-25T17:43:48.070Z,63.10
2023-05-25T17:46:36.744Z,63.80
2023-05-25T17:49:24.088Z,64.60
2023-05-25T17:52:12.313Z,64.50
2023-05-25T17:54:59.510Z,64.30
2023-05-25T17:57:47.176Z,64.40
2023-05-25T18:00:35.784Z,64.50
2023-05-25T18:03:24.689Z,64.50
2023-05-25T18:06:12.554Z,63.90
2023-05-25T18:09:00.403Z,63.60
2023-05-25T18:11:48.084Z,64.10
2023-05-25T18:14:37.978Z,64.60
2023-05-25T18:17:27.429Z,63.90
2023-05-25T18:20:14.688Z,63.80
2023-05-25T18:23:03.732Z,64.10
2023-05-25T18:25:51.483Z,64.40
2023-05-25T18:28:38.702Z,64.40
2023-05-25T18:31:27.145Z,64.50
2023-05-25T18:34:16.056Z,64.30
2023-05-25T18:37:03.844Z,64.90
2023-05-25T18:39:51.507Z,64.90
2023-05-25T18:42:39.385Z,65.00
2023-05-25T18:45:26.678Z,65.10
2023-05-25T18:48:15.618Z,65.90
2023-05-25T18:51:05.488Z,65.50
2023-05-25T18:53:53.854Z,66.00
2023-05-25T18:56:41.857Z,66.60
2023-05-25T18:59:29.153Z,67.70
2023-05-25T19:02:16.960Z,68.10
2023-05-25T19:05:04.514Z,68.40
2023-05-25T19:07:59.026Z,68.90
2023-05-25T19:10:46.994Z,69.20
2023-05-25T19:13:34.650Z,70.10
2023-05-25T19:16:21.916Z,71.10
2023-05-25T19:19:09.266Z,71.90
2023-05-25T19:21:57.604Z,72.20
2023-05-25T19:24:48.476Z,72.90
2023-05-25T19:27:38.365Z,73.70
2023-05-25T19:30:25.806Z,73.80
2023-05-25T19:33:13.064Z,74.40
2023-05-25T19:36:00.448Z,74.60
2023-05-25T19:38:48.726Z,75.20
2023-05-25T19:41:38.130Z,75.40
2023-05-25T19:44:25.991Z,75.50
2023-05-25T19:47:13.669Z,75.80
2023-05-25T19:50:02.644Z,76.20
2023-05-25T19:52:51.108Z,76.20
2023-05-25T19:55:38.832Z,76.50
2023-05-25T19:58:28.493Z,77.00
2023-05-25T20:01:15.942Z,77.50
2023-05-25T20:04:03.312Z,77.90
2023-05-25T20:06:50.929Z,78.00
2023-05-25T20:09:39.704Z,78.60
2023-05-25T20:12:27.404Z,78.70
2023-05-25T20:15:17.182Z,78.90
2023-05-25T20:18:04.979Z,78.80
2023-05-25T20:20:52.457Z,79.40
2023-05-25T20:23:40.643Z,79.40
2023-05-25T20:26:27.929Z,79.50
2023-05-25T20:29:16.131Z,80.00
2023-05-25T20:32:04.901Z,80.20
2023-05-25T20:34:52.744Z,80.50
2023-05-25T20:37:40.513Z,80.40
2023-05-25T20:40:27.697Z,80.90
2023-05-25T20:43:15.840Z,81.10
2023-05-25T20:46:03.111Z,81.70
2023-05-25T20:48:53.837Z,81.90
2023-05-25T20:51:44.354Z,81.80
2023-05-25T20:54:32.955Z,81.80
2023-05-25T20:57:20.217Z,82.10
2023-05-25T21:00:09.594Z,82.50
2023-05-25T21:02:56.923Z,82.60
2023-05-25T21:05:46.620Z,83.20
2023-05-25T21:08:34.996Z,83.20
2023-05-25T21:11:22.367Z,83.50
2023-05-25T21:14:09.687Z,84.00
2023-05-25T21:16:57.822Z,83.80
2023-05-25T21:19:44.975Z,84.20
2023-05-25T21:22:34.498Z,84.30
2023-05-25T21:25:21.788Z,84.10
2023-05-25T21:28:10.870Z,85.30
2023-05-25T21:30:58.109Z,85.40
2023-05-25T21:33:47.737Z,85.40
2023-05-25T21:36:34.998Z,85.40
2023-05-25T21:39:24.529Z,85.60
2023-05-25T21:42:12.215Z,85.60
2023-05-25T21:44:59.414Z,85.70
2023-05-25T21:47:48.058Z,86.60
2023-05-25T21:50:36.593Z,86.90
2023-05-25T21:53:24.343Z,87.80
2023-05-25T21:56:13.335Z,87.70
2023-05-25T21:59:01.005Z,86.80
2023-05-25T22:01:48.228Z,87.30
2023-05-25T22:04:36.386Z,87.50
2023-05-25T22:07:23.590Z,87.30
2023-05-25T22:10:12.099Z,88.60
2023-05-25T22:13:01.611Z,87.90
2023-05-25T22:15:49.785Z,89.40
2023-05-25T22:18:38.593Z,88.00
2023-05-25T22:21:26.457Z,89.60
2023-05-25T22:24:13.637Z,89.70
2023-05-25T22:27:03.106Z,89.30
2023-05-25T22:29:51.750Z,89.40
2023-05-25T22:32:40.029Z,89.20
2023-05-25T22:35:27.365Z,89.80
2023-05-25T22:38:15.575Z,89.40
2023-05-25T22:41:03.120Z,90.80
2023-05-25T22:43:51.244Z,91.60
2023-05-25T22:46:39.807Z,91.60
2023-05-25T22:49:28.001Z,91.70
2023-05-25T22:52:15.332Z,92.20
2023-05-25T22:55:04.230Z,92.40
2023-05-25T22:57:51.413Z,92.70
2023-05-25T23:00:39.582Z,92.30
2023-05-25T23:03:29.093Z,92.40
2023-05-25T23:06:16.479Z,92.20
2023-05-25T23:09:04.779Z,92.40
2023-05-25T23:11:52.452Z,92.60
2023-05-25T23:14:40.509Z,92.50
2023-05-25T23:17:28.670Z,92.90
2023-05-25T23:20:17.444Z,92.60
2023-05-25T23:23:05.583Z,93.30
2023-05-25T23:25:53.882Z,93.30
2023-05-25T23:28:42.025Z,93.00
2023-05-25T23:31:29.223Z,93.60
2023-05-25T23:34:17.389Z,93.90
2023-05-25T23:37:06.544Z,93.00
2023-05-25T23:39:54.885Z,93.20
2023-05-25T23:42:44.666Z,93.50
2023-05-25T23:45:31.863Z,93.20
2023-05-25T23:48:20.020Z,93.40
2023-05-25T23:51:07.592Z,93.40
2023-05-25T23:53:57.112Z,93.60
2023-05-25T23:56:44.261Z,93.70
2023-05-25T23:59:32.383Z,93.10
